Main page
METAR-TAF:

METAR-TAF

Airports :

Santarém-Maestro Wilson Fonseca Airport

Santarém, Pará, Brazil

latitude: 02-26S, longitude: 054-43W, elevation: 72 m

Current weather observation

The report was made 23 minutes ago, at 15:00 UTC
Wind 13 kt from the East
Temperature 33°C
Humidity 53%
Pressure 1012 hPa
Visibility 10 km or more
Few clouds at a height of 1800 ft

METAR: SBSN 181500Z 09013KT 9999 FEW018 33/22 Q1012

Time: 11:23 (15:23 UTC)

Forecast

The report was made 5 hours and 23 minutes ago, at 10:00 UTC
Forecast valid from 18 at 12 UTC to 19 at 12 UTC
Wind 5 kt from the East
Visibility 10 km or more
Few clouds at a height of 1700 ft
Becoming
from 18 at 16 UTC to 18 at 18 UTC
Wind 8 kt from the East
Scattered clouds at a height of 2000 ft
Becoming
from 18 at 22 UTC to 18 at 24 UTC
Wind 3 kt from the East/Southeast
Visibility 10 km or more
no clouds below 1500 m and no cumulonimbus

TAF: SBSN 181000Z 1812/1912 08005KT 9999 FEW017 TX34/1818Z TN24/1908Z BECMG 1816/1818 09008KT SCT020 BECMG 1822/1824 12003KT CAVOK RMK PEN

Weather observations and forecasts of more than 4000 airports (METAR and TAF reports).

The available stations are represented by yellow and red dots on the map.

Hover mouse over dot to see the name of the station.

Then click to see weather observations and forecasts.

To change the map : click on the green buttons with a black cross to zoom in, on the green button with a dash to zoom out, or on the green arrows for adjacent maps.


METAR-TAF: